sensor_id;sensor_type;location;lat;lon;timestamp;pressure;altitude;pressure_sealevel;temperature;humidity
10476;BME280;26166;48.264;11.436;2023-11-21T00:02:45;95689.25;;;12.33;56.93
10476;BME280;26166;48.264;11.436;2023-11-21T00:05:45;95683.16;;;12.33;57.09
10476;BME280;26166;48.264;11.436;2023-11-21T00:08:45;95686.00;;;12.31;57.32
10476;BME280;26166;48.264;11.436;2023-11-21T00:11:45;95685.00;;;12.32;57.04
10476;BME280;26166;48.264;11.436;2023-11-21T00:14:46;95684.78;;;12.34;57.11
10476;BME280;26166;48.264;11.436;2023-11-21T00:17:46;95682.97;;;12.34;57.32
10476;BME280;26166;48.264;11.436;2023-11-21T00:20:47;95685.81;;;12.33;57.12
10476;BME280;26166;48.264;11.436;2023-11-21T00:23:47;95676.47;;;12.30;57.23
10476;BME280;26166;48.264;11.436;2023-11-21T00:26:47;95673.66;;;12.32;57.41
10476;BME280;26166;48.264;11.436;2023-11-21T00:29:48;95656.03;;;12.32;57.43
10476;BME280;26166;48.264;11.436;2023-11-21T00:32:48;95659.69;;;12.31;57.57
10476;BME280;26166;48.264;11.436;2023-11-21T00:35:48;95657.84;;;12.32;57.73
10476;BME280;26166;48.264;11.436;2023-11-21T00:38:49;95652.38;;;12.33;57.60
10476;BME280;26166;48.264;11.436;2023-11-21T00:41:49;95643.66;;;12.33;57.50
10476;BME280;26166;48.264;11.436;2023-11-21T00:44:49;95646.91;;;12.35;57.41
10476;BME280;26166;48.264;11.436;2023-11-21T00:47:50;95638.19;;;12.34;57.38
10476;BME280;26166;48.264;11.436;2023-11-21T00:50:50;95641.47;;;12.36;57.50
10476;BME280;26166;48.264;11.436;2023-11-21T00:53:50;95639.84;;;12.35;57.54
10476;BME280;26166;48.264;11.436;2023-11-21T00:56:50;95641.47;;;12.36;57.42
10476;BME280;26166;48.264;11.436;2023-11-21T00:59:50;95643.28;;;12.36;57.38
10476;BME280;26166;48.264;11.436;2023-11-21T01:02:51;95635.19;;;12.37;57.38
10476;BME280;26166;48.264;11.436;2023-11-21T01:05:51;95632.19;;;12.41;57.44
10476;BME280;26166;48.264;11.436;2023-11-21T01:08:51;95629.53;;;12.41;57.36
10476;BME280;26166;48.264;11.436;2023-11-21T01:11:51;95636.44;;;12.42;57.26
10476;BME280;26166;48.264;11.436;2023-11-21T01:14:52;95635.81;;;12.40;57.30
10476;BME280;26166;48.264;11.436;2023-11-21T01:17:52;95639.44;;;12.38;57.16
10476;BME280;26166;48.264;11.436;2023-11-21T01:20:52;95633.38;;;12.38;57.30
10476;BME280;26166;48.264;11.436;2023-11-21T01:23:53;95638.63;;;12.38;57.15
10476;BME280;26166;48.264;11.436;2023-11-21T01:26:55;95636.00;;;12.38;57.32
10476;BME280;26166;48.264;11.436;2023-11-21T01:29:55;95639.44;;;12.38;57.59
10476;BME280;26166;48.264;11.436;2023-11-21T01:32:55;95642.09;;;12.38;57.56
10476;BME280;26166;48.264;11.436;2023-11-21T01:35:56;95642.28;;;12.37;57.57
10476;BME280;26166;48.264;11.436;2023-11-21T01:38:56;95653.63;;;12.37;57.55
10476;BME280;26166;48.264;11.436;2023-11-21T01:41:59;95646.75;;;12.36;57.45
10476;BME280;26166;48.264;11.436;2023-11-21T01:44:59;95649.16;;;12.38;57.60
10476;BME280;26166;48.264;11.436;2023-11-21T01:47:59;95641.28;;;12.38;57.64
10476;BME280;26166;48.264;11.436;2023-11-21T01:51:01;95655.66;;;12.35;57.84
10476;BME280;26166;48.264;11.436;2023-11-21T01:54:02;95661.09;;;12.34;58.26
10476;BME280;26166;48.264;11.436;2023-11-21T01:57:05;95666.56;;;12.32;58.38
10476;BME280;26166;48.264;11.436;2023-11-21T02:00:06;95662.47;;;12.30;58.07
10476;BME280;26166;48.264;11.436;2023-11-21T02:03:15;95668.38;;;12.32;58.14
10476;BME280;26166;48.264;11.436;2023-11-21T02:06:16;95675.28;;;12.33;58.11
10476;BME280;26166;48.264;11.436;2023-11-21T02:09:17;95665.34;;;12.35;58.11
10476;BME280;26166;48.264;11.436;2023-11-21T02:12:22;95669.81;;;12.34;58.21
10476;BME280;26166;48.264;11.436;2023-11-21T02:15:26;95671.84;;;12.32;58.32
10476;BME280;26166;48.264;11.436;2023-11-21T02:18:28;95662.47;;;12.30;58.57
10476;BME280;26166;48.264;11.436;2023-11-21T02:21:29;95660.66;;;12.30;58.45
10476;BME280;26166;48.264;11.436;2023-11-21T02:24:30;95647.91;;;12.27;58.46
10476;BME280;26166;48.264;11.436;2023-11-21T02:27:31;95646.28;;;12.26;58.60
10476;BME280;26166;48.264;11.436;2023-11-21T02:30:31;95649.72;;;12.27;58.41
10476;BME280;26166;48.264;11.436;2023-11-21T02:33:34;95646.28;;;12.26;58.72
10476;BME280;26166;48.264;11.436;2023-11-21T02:36:34;95640.56;;;12.23;58.82
10476;BME280;26166;48.264;11.436;2023-11-21T02:39:35;95634.66;;;12.21;59.19
10476;BME280;26166;48.264;11.436;2023-11-21T02:42:35;95645.41;;;12.19;59.17
10476;BME280;26166;48.264;11.436;2023-11-21T02:45:35;95638.09;;;12.21;59.03
10476;BME280;26166;48.264;11.436;2023-11-21T02:48:36;95632.84;;;12.21;59.26
10476;BME280;26166;48.264;11.436;2023-11-21T02:51:37;95634.88;;;12.19;59.34
10476;BME280;26166;48.264;11.436;2023-11-21T02:54:40;95634.88;;;12.19;59.20
10476;BME280;26166;48.264;11.436;2023-11-21T02:57:40;95633.66;;;12.22;59.32
10476;BME280;26166;48.264;11.436;2023-11-21T03:00:40;95634.09;;;12.25;59.08
10476;BME280;26166;48.264;11.436;2023-11-21T03:03:44;95634.28;;;12.24;59.18
10476;BME280;26166;48.264;11.436;2023-11-21T03:06:45;95630.84;;;12.23;59.21
10476;BME280;26166;48.264;11.436;2023-11-21T03:09:45;95636.94;;;12.24;59.34
10476;BME280;26166;48.264;11.436;2023-11-21T03:12:46;95643.38;;;12.21;59.75
10476;BME280;26166;48.264;11.436;2023-11-21T03:15:46;95640.75;;;12.21;59.87
10476;BME280;26166;48.264;11.436;2023-11-21T03:18:47;95645.34;;;12.12;60.21
10476;BME280;26166;48.264;11.436;2023-11-21T03:21:47;95648.53;;;12.08;60.62
10476;BME280;26166;48.264;11.436;2023-11-21T03:24:47;95645.50;;;12.04;60.69
10476;BME280;26166;48.264;11.436;2023-11-21T03:27:48;95644.28;;;12.07;60.69
10476;BME280;26166;48.264;11.436;2023-11-21T03:30:48;95641.66;;;12.07;60.49
10476;BME280;26166;48.264;11.436;2023-11-21T03:33:48;95640.03;;;12.06;60.79
10476;BME280;26166;48.264;11.436;2023-11-21T03:36:48;95643.69;;;12.05;60.82
10476;BME280;26166;48.264;11.436;2023-11-21T03:39:49;95648.94;;;12.05;61.04
10476;BME280;26166;48.264;11.436;2023-11-21T03:42:49;95646.31;;;12.05;60.92
10476;BME280;26166;48.264;11.436;2023-11-21T03:45:49;95644.66;;;12.04;61.16
10476;BME280;26166;48.264;11.436;2023-11-21T03:48:49;95639.38;;;12.04;61.13
10476;BME280;26166;48.264;11.436;2023-11-21T03:51:50;95634.78;;;12.06;61.06
10476;BME280;26166;48.264;11.436;2023-11-21T03:54:50;95629.31;;;12.07;60.88
10476;BME280;26166;48.264;11.436;2023-11-21T03:57:51;95627.09;;;12.11;60.54
10476;BME280;26166;48.264;11.436;2023-11-21T04:00:51;95632.00;;;12.14;60.44
10476;BME280;26166;48.264;11.436;2023-11-21T04:03:51;95623.69;;;12.17;60.29
10476;BME280;26166;48.264;11.436;2023-11-21T04:06:52;95625.16;;;12.20;60.22
10476;BME280;26166;48.264;11.436;2023-11-21T04:09:52;95625.97;;;12.20;60.09
10476;BME280;26166;48.264;11.436;2023-11-21T04:12:52;95629.22;;;12.22;59.77
10476;BME280;26166;48.264;11.436;2023-11-21T04:15:52;95626.59;;;12.22;59.84
10476;BME280;26166;48.264;11.436;2023-11-21T04:18:53;95629.59;;;12.19;59.79
10476;BME280;26166;48.264;11.436;2023-11-21T04:21:53;95629.59;;;12.19;59.70
10476;BME280;26166;48.264;11.436;2023-11-21T04:24:53;95629.59;;;12.19;59.52
10476;BME280;26166;48.264;11.436;2023-11-21T04:27:55;95628.97;;;12.17;59.38
10476;BME280;26166;48.264;11.436;2023-11-21T04:30:56;95625.72;;;12.15;59.33
10476;BME280;26166;48.264;11.436;2023-11-21T04:33:56;95625.13;;;12.13;59.45
10476;BME280;26166;48.264;11.436;2023-11-21T04:36:56;95631.34;;;12.12;59.42
10476;BME280;26166;48.264;11.436;2023-11-21T04:39:56;95634.00;;;12.12;59.58
10476;BME280;26166;48.264;11.436;2023-11-21T04:42:57;95633.19;;;12.11;59.62
10476;BME280;26166;48.264;11.436;2023-11-21T04:45:57;95627.09;;;12.11;59.25
10476;BME280;26166;48.264;11.436;2023-11-21T04:48:57;95632.75;;;12.08;59.50
10476;BME280;26166;48.264;11.436;2023-11-21T04:51:58;95632.56;;;12.09;59.23
10476;BME280;26166;48.264;11.436;2023-11-21T04:54:58;95628.94;;;12.10;59.38
10476;BME280;26166;48.264;11.436;2023-11-21T04:57:58;95633.75;;;12.07;59.34
10476;BME280;26166;48.264;11.436;2023-11-21T05:00:58;95631.50;;;12.04;59.23
10476;BME280;26166;48.264;11.436;2023-11-21T05:03:59;95628.06;;;12.03;59.60
10476;BME280;26166;48.264;11.436;2023-11-21T05:06:59;95633.97;;;12.05;59.36
10476;BME280;26166;48.264;11.436;2023-11-21T05:10:00;95638.41;;;12.05;59.26
10476;BME280;26166;48.264;11.436;2023-11-21T05:13:04;95640.22;;;12.04;59.27
10476;BME280;26166;48.264;11.436;2023-11-21T05:16:09;95639.78;;;12.01;59.28
10476;BME280;26166;48.264;11.436;2023-11-21T05:19:10;95642.44;;;12.01;59.27
10476;BME280;26166;48.264;11.436;2023-11-21T05:22:10;95640.41;;;12.03;59.33
10476;BME280;26166;48.264;11.436;2023-11-21T05:25:11;95648.13;;;12.04;58.96
10476;BME280;26166;48.264;11.436;2023-11-21T05:28:12;95647.28;;;12.04;59.16
10476;BME280;26166;48.264;11.436;2023-11-21T05:31:12;95644.28;;;12.07;59.08
10476;BME280;26166;48.264;11.436;2023-11-21T05:34:12;95648.38;;;12.09;59.02
10476;BME280;26166;48.264;11.436;2023-11-21T05:37:12;95650.00;;;12.10;59.10
10476;BME280;26166;48.264;11.436;2023-11-21T05:40:13;95653.81;;;12.08;59.04
10476;BME280;26166;48.264;11.436;2023-11-21T05:43:13;95658.25;;;12.07;59.24
10476;BME280;26166;48.264;11.436;2023-11-21T05:46:13;95660.09;;;12.07;59.34
10476;BME280;26166;48.264;11.436;2023-11-21T05:49:13;95658.25;;;12.07;59.08
10476;BME280;26166;48.264;11.436;2023-11-21T05:52:13;95661.34;;;12.11;59.11
10476;BME280;26166;48.264;11.436;2023-11-21T05:55:14;95660.31;;;12.12;58.96
10476;BME280;26166;48.264;11.436;2023-11-21T05:58:14;95666.59;;;12.11;58.83
10476;BME280;26166;48.264;11.436;2023-11-21T06:01:14;95667.78;;;12.08;58.88
10476;BME280;26166;48.264;11.436;2023-11-21T06:04:15;95666.81;;;12.09;58.69
10476;BME280;26166;48.264;11.436;2023-11-21T06:07:15;95667.16;;;12.06;58.94
10476;BME280;26166;48.264;11.436;2023-11-21T06:10:15;95666.34;;;12.06;58.72
10476;BME280;26166;48.264;11.436;2023-11-21T06:13:17;95680.13;;;12.08;58.78
10476;BME280;26166;48.264;11.436;2023-11-21T06:16:24;95678.50;;;12.07;58.60
10476;BME280;26166;48.264;11.436;2023-11-21T06:19:24;95683.56;;;12.08;58.89
10476;BME280;26166;48.264;11.436;2023-11-21T06:22:24;95693.28;;;12.08;58.67
10476;BME280;26166;48.264;11.436;2023-11-21T06:25:24;95688.84;;;12.08;58.51
10476;BME280;26166;48.264;11.436;2023-11-21T06:28:24;95690.28;;;12.11;58.29
10476;BME280;26166;48.264;11.436;2023-11-21T06:31:25;95685.03;;;12.11;58.16
10476;BME280;26166;48.264;11.436;2023-11-21T06:34:26;95687.84;;;12.09;58.39
10476;BME280;26166;48.264;11.436;2023-11-21T06:37:28;95688.44;;;12.05;58.32
10476;BME280;26166;48.264;11.436;2023-11-21T06:40:28;95696.69;;;12.02;58.62
10476;BME280;26166;48.264;11.436;2023-11-21T06:43:29;95698.97;;;12.05;58.44
10476;BME280;26166;48.264;11.436;2023-11-21T06:46:31;95697.69;;;12.01;58.24
10476;BME280;26166;48.264;11.436;2023-11-21T06:49:31;95705.16;;;11.97;58.20
10476;BME280;26166;48.264;11.436;2023-11-21T06:52:31;95711.22;;;11.98;58.44
10476;BME280;26166;48.264;11.436;2023-11-21T06:55:32;95708.41;;;11.99;58.17
10476;BME280;26166;48.264;11.436;2023-11-21T06:58:33;95716.13;;;12.01;58.26
10476;BME280;26166;48.264;11.436;2023-11-21T07:01:33;95708.84;;;12.03;58.10
10476;BME280;26166;48.264;11.436;2023-11-21T07:04:38;95717.38;;;12.05;57.98
10476;BME280;26166;48.264;11.436;2023-11-21T07:07:39;95724.63;;;12.03;58.28
10476;BME280;26166;48.264;11.436;2023-11-21T07:10:39;95722.66;;;12.05;57.97
10476;BME280;26166;48.264;11.436;2023-11-21T07:13:39;95725.69;;;12.08;58.13
10476;BME280;26166;48.264;11.436;2023-11-21T07:16:39;95730.16;;;12.08;58.07
10476;BME280;26166;48.264;11.436;2023-11-21T07:19:39;95723.25;;;12.07;57.80
10476;BME280;26166;48.264;11.436;2023-11-21T07:22:41;95736.19;;;12.02;57.81
10476;BME280;26166;48.264;11.436;2023-11-21T07:25:41;95733.47;;;11.95;58.00
10476;BME280;26166;48.264;11.436;2023-11-21T07:28:43;95731.69;;;11.96;57.87
10476;BME280;26166;48.264;11.436;2023-11-21T07:31:43;95737.56;;;11.98;58.00
10476;BME280;26166;48.264;11.436;2023-11-21T07:34:43;95734.91;;;11.98;57.85
10476;BME280;26166;48.264;11.436;2023-11-21T07:37:43;95745.09;;;12.01;57.93
10476;BME280;26166;48.264;11.436;2023-11-21T07:40:44;95749.53;;;12.00;57.87
10476;BME280;26166;48.264;11.436;2023-11-21T07:43:44;95747.06;;;11.99;57.96
10476;BME280;26166;48.264;11.436;2023-11-21T07:46:44;95748.72;;;12.00;57.67
10476;BME280;26166;48.264;11.436;2023-11-21T07:49:45;95752.16;;;12.00;57.82
10476;BME280;26166;48.264;11.436;2023-11-21T07:52:46;95745.91;;;12.01;57.92
10476;BME280;26166;48.264;11.436;2023-11-21T07:55:47;95759.88;;;12.02;57.68
10476;BME280;26166;48.264;11.436;2023-11-21T07:58:47;95759.63;;;11.97;57.68
10476;BME280;26166;48.264;11.436;2023-11-21T08:01:47;95756.34;;;11.95;57.54
10476;BME280;26166;48.264;11.436;2023-11-21T08:04:47;95757.16;;;11.95;57.55
10476;BME280;26166;48.264;11.436;2023-11-21T08:07:49;95750.09;;;11.96;57.63
10476;BME280;26166;48.264;11.436;2023-11-21T08:10:50;95754.53;;;11.95;57.63
10476;BME280;26166;48.264;11.436;2023-11-21T08:13:56;95757.00;;;11.97;57.68
10476;BME280;26166;48.264;11.436;2023-11-21T08:16:56;95761.25;;;11.98;57.72
10476;BME280;26166;48.264;11.436;2023-11-21T08:19:57;95764.25;;;11.95;57.53
10476;BME280;26166;48.264;11.436;2023-11-21T08:22:58;95765.91;;;11.96;57.51
10476;BME280;26166;48.264;11.436;2023-11-21T08:25:58;95764.25;;;11.95;57.60
10476;BME280;26166;48.264;11.436;2023-11-21T08:28:58;95765.91;;;11.96;57.69
10476;BME280;26166;48.264;11.436;2023-11-21T08:31:59;95764.25;;;11.95;57.78
10476;BME280;26166;48.264;11.436;2023-11-21T08:35:00;95763.44;;;11.94;57.33
10476;BME280;26166;48.264;11.436;2023-11-21T08:38:00;95763.81;;;11.91;57.46
10476;BME280;26166;48.264;11.436;2023-11-21T08:41:00;95770.50;;;11.94;57.58
10476;BME280;26166;48.264;11.436;2023-11-21T08:44:01;95769.13;;;11.98;57.50
10476;BME280;26166;48.264;11.436;2023-11-21T08:47:01;95768.88;;;11.93;58.06
10476;BME280;26166;48.264;11.436;2023-11-21T08:50:01;95761.81;;;11.93;57.74
10476;BME280;26166;48.264;11.436;2023-11-21T08:53:01;95763.81;;;11.91;58.06
10476;BME280;26166;48.264;11.436;2023-11-21T08:56:01;95770.72;;;11.92;58.11
10476;BME280;26166;48.264;11.436;2023-11-21T08:59:02;95776.13;;;11.91;58.29
10476;BME280;26166;48.264;11.436;2023-11-21T09:02:02;95774.16;;;11.93;57.98
10476;BME280;26166;48.264;11.436;2023-11-21T09:05:05;95770.88;;;11.91;58.15
10476;BME280;26166;48.264;11.436;2023-11-21T09:08:06;95777.16;;;11.90;58.27
10476;BME280;26166;48.264;11.436;2023-11-21T09:11:06;95779.63;;;11.91;58.52
10476;BME280;26166;48.264;11.436;2023-11-21T09:14:08;95785.69;;;11.92;58.39
10476;BME280;26166;48.264;11.436;2023-11-21T09:17:09;95789.69;;;11.88;58.49
10476;BME280;26166;48.264;11.436;2023-11-21T09:20:11;95788.06;;;11.86;58.78
10476;BME280;26166;48.264;11.436;2023-11-21T09:23:11;95778.16;;;11.89;58.52
10476;BME280;26166;48.264;11.436;2023-11-21T09:26:11;95781.41;;;11.91;58.47
10476;BME280;26166;48.264;11.436;2023-11-21T09:29:12;95786.06;;;11.89;58.91
10476;BME280;26166;48.264;11.436;2023-11-21T09:32:12;95783.88;;;11.92;58.69
10476;BME280;26166;48.264;11.436;2023-11-21T09:35:14;95796.03;;;11.93;58.86
10476;BME280;26166;48.264;11.436;2023-11-21T09:38:14;95795.22;;;11.93;58.77
10476;BME280;26166;48.264;11.436;2023-11-21T09:41:21;95796.22;;;11.92;58.87
10476;BME280;26166;48.264;11.436;2023-11-21T09:44:38;95799.81;;;11.91;58.97
10476;BME280;26166;48.264;11.436;2023-11-21T09:47:44;95798.66;;;11.93;58.81
10476;BME280;26166;48.264;11.436;2023-11-21T09:50:45;95797.84;;;11.93;59.02
10476;BME280;26166;48.264;11.436;2023-11-21T09:53:47;95795.81;;;11.95;59.01
10476;BME280;26166;48.264;11.436;2023-11-21T09:56:49;95795.00;;;11.94;58.97
10476;BME280;26166;48.264;11.436;2023-11-21T09:59:54;95794.19;;;11.94;59.26
10476;BME280;26166;48.264;11.436;2023-11-21T10:03:00;95792.00;;;11.97;59.05
10476;BME280;26166;48.264;11.436;2023-11-21T10:06:02;95794.28;;;12.00;59.04
10476;BME280;26166;48.264;11.436;2023-11-21T10:09:05;95792.06;;;12.04;59.02
10476;BME280;26166;48.264;11.436;2023-11-21T10:12:11;95791.91;;;12.05;58.96
10476;BME280;26166;48.264;11.436;2023-11-21T10:15:12;95786.81;;;12.04;58.94
10476;BME280;26166;48.264;11.436;2023-11-21T10:18:16;95794.34;;;12.07;58.96
10476;BME280;26166;48.264;11.436;2023-11-21T10:21:17;95799.81;;;12.05;59.06
10476;BME280;26166;48.264;11.436;2023-11-21T10:24:17;95806.06;;;12.04;58.99
10476;BME280;26166;48.264;11.436;2023-11-21T10:27:18;95800.38;;;12.01;59.09
10476;BME280;26166;48.264;11.436;2023-11-21T10:30:18;95795.47;;;11.98;59.09
10476;BME280;26166;48.264;11.436;2023-11-21T10:33:20;95802.53;;;11.97;59.08
10476;BME280;26166;48.264;11.436;2023-11-21T10:36:26;95802.75;;;11.96;59.18
10476;BME280;26166;48.264;11.436;2023-11-21T10:39:29;95795.81;;;11.95;59.20
10476;BME280;26166;48.264;11.436;2023-11-21T10:42:31;95798.75;;;12.00;59.25
10476;BME280;26166;48.264;11.436;2023-11-21T10:45:32;95810.44;;;11.97;59.25
10476;BME280;26166;48.264;11.436;2023-11-21T10:48:32;95805.63;;;12.01;59.33
10476;BME280;26166;48.264;11.436;2023-11-21T10:51:35;95803.59;;;12.03;59.26
10476;BME280;26166;48.264;11.436;2023-11-21T10:54:35;95799.59;;;12.07;59.33
10476;BME280;26166;48.264;11.436;2023-11-21T10:57:37;95793.09;;;12.03;59.53
10476;BME280;26166;48.264;11.436;2023-11-21T11:00:39;95794.34;;;12.07;59.21
10476;BME280;26166;48.264;11.436;2023-11-21T11:03:40;95790.91;;;12.06;59.23
10476;BME280;26166;48.264;11.436;2023-11-21T11:06:44;95790.69;;;12.08;59.12
10476;BME280;26166;48.264;11.436;2023-11-21T11:09:44;95797.63;;;12.09;59.35
10476;BME280;26166;48.264;11.436;2023-11-21T11:12:45;95793.97;;;12.10;59.02
10476;BME280;26166;48.264;11.436;2023-11-21T11:15:48;95795.78;;;12.09;59.15
10476;BME280;26166;48.264;11.436;2023-11-21T11:18:48;95789.53;;;12.10;59.25
10476;BME280;26166;48.264;11.436;2023-11-21T11:22:02;95787.69;;;12.11;59.24
10476;BME280;26166;48.264;11.436;2023-11-21T11:34:47;95789.31;;;12.12;59.27
10476;BME280;26166;48.264;11.436;2023-11-21T11:37:49;95785.06;;;12.11;59.61
10476;BME280;26166;48.264;11.436;2023-11-21T11:40:52;95793.59;;;12.13;59.40
10476;BME280;26166;48.264;11.436;2023-11-21T11:43:53;95788.16;;;12.15;59.34
10476;BME280;26166;48.264;11.436;2023-11-21T11:46:53;95790.78;;;12.15;59.26
10476;BME280;26166;48.264;11.436;2023-11-21T11:50:00;95787.50;;;12.12;59.50
10476;BME280;26166;48.264;11.436;2023-11-21T11:53:14;95776.81;;;12.14;59.44
10476;BME280;26166;48.264;11.436;2023-11-21T11:56:30;95779.03;;;12.17;59.40
10476;BME280;26166;48.264;11.436;2023-11-21T11:59:36;95777.25;;;12.18;59.37
10476;BME280;26166;48.264;11.436;2023-11-21T12:02:52;95779.03;;;12.17;59.39
10476;BME280;26166;48.264;11.436;2023-11-21T12:05:53;95772.16;;;12.16;59.56
10476;BME280;26166;48.264;11.436;2023-11-21T12:09:00;95772.59;;;12.20;59.45
10476;BME280;26166;48.264;11.436;2023-11-21T12:12:01;95784.13;;;12.19;59.25
10476;BME280;26166;48.264;11.436;2023-11-21T12:15:02;95775.03;;;12.21;59.25
10476;BME280;26166;48.264;11.436;2023-11-21T12:18:04;95784.59;;;12.22;59.54
10476;BME280;26166;48.264;11.436;2023-11-21T12:21:04;95778.88;;;12.19;59.47
10476;BME280;26166;48.264;11.436;2023-11-21T12:24:06;95785.75;;;12.20;59.21
10476;BME280;26166;48.264;11.436;2023-11-21T12:27:08;95781.31;;;12.20;59.30
10476;BME280;26166;48.264;11.436;2023-11-21T12:30:08;95786.94;;;12.17;59.39
10476;BME280;26166;48.264;11.436;2023-11-21T12:33:13;95779.03;;;12.17;59.46
10476;BME280;26166;48.264;11.436;2023-11-21T12:36:17;95780.84;;;12.17;59.11
10476;BME280;26166;48.264;11.436;2023-11-21T12:39:17;95779.25;;;12.16;58.99
10476;BME280;26166;48.264;11.436;2023-11-21T12:42:18;95791.38;;;12.17;59.37
10476;BME280;26166;48.264;11.436;2023-11-21T12:45:19;95778.06;;;12.18;59.29
10476;BME280;26166;48.264;11.436;2023-11-21T12:48:20;95785.97;;;12.18;59.14
10476;BME280;26166;48.264;11.436;2023-11-21T12:51:24;95791.22;;;12.18;59.40
10476;BME280;26166;48.264;11.436;2023-11-21T12:54:25;95787.59;;;12.19;59.06
10476;BME280;26166;48.264;11.436;2023-11-21T12:57:25;95796.09;;;12.21;59.38
10476;BME280;26166;48.264;11.436;2023-11-21T13:00:28;95788.19;;;12.21;59.17
10476;BME280;26166;48.264;11.436;2023-11-21T13:03:29;95788.19;;;12.21;58.99
10476;BME280;26166;48.264;11.436;2023-11-21T13:06:30;95788.03;;;12.23;59.10
10476;BME280;26166;48.264;11.436;2023-11-21T13:09:34;95797.75;;;12.22;59.03
10476;BME280;26166;48.264;11.436;2023-11-21T13:12:34;95794.09;;;12.23;59.35
10476;BME280;26166;48.264;11.436;2023-11-21T13:15:41;95787.63;;;12.26;59.24
10476;BME280;26166;48.264;11.436;2023-11-21T13:18:47;95793.91;;;12.25;59.23
10476;BME280;26166;48.264;11.436;2023-11-21T13:21:47;95813.16;;;12.25;59.11
10476;BME280;26166;48.264;11.436;2023-11-21T13:24:47;95807.88;;;12.25;59.08
10476;BME280;26166;48.264;11.436;2023-11-21T13:27:47;95819.44;;;12.24;59.39
10476;BME280;26166;48.264;11.436;2023-11-21T13:30:48;95821.88;;;12.26;59.47
10476;BME280;26166;48.264;11.436;2023-11-21T13:33:48;95820.19;;;12.18;59.79
10476;BME280;26166;48.264;11.436;2023-11-21T13:36:55;95818.53;;;12.17;60.03
10476;BME280;26166;48.264;11.436;2023-11-21T13:39:58;95820.56;;;12.15;60.26
10476;BME280;26166;48.264;11.436;2023-11-21T13:42:59;95825.19;;;12.13;60.71
10476;BME280;26166;48.264;11.436;2023-11-21T13:45:59;95832.09;;;12.14;60.53
10476;BME280;26166;48.264;11.436;2023-11-21T13:49:03;95829.63;;;12.12;60.85
10476;BME280;26166;48.264;11.436;2023-11-21T13:52:05;95828.00;;;12.11;60.55
10476;BME280;26166;48.264;11.436;2023-11-21T13:55:07;95824.00;;;12.16;60.71
10476;BME280;26166;48.264;11.436;2023-11-21T13:58:14;95834.53;;;12.16;61.10
10476;BME280;26166;48.264;11.436;2023-11-21T14:01:20;95836.97;;;12.17;60.89
10476;BME280;26166;48.264;11.436;2023-11-21T14:04:47;95846.31;;;12.20;60.86
10476;BME280;26166;48.264;11.436;2023-11-21T14:08:00;95844.13;;;12.23;60.84
10476;BME280;26166;48.264;11.436;2023-11-21T14:11:04;95848.19;;;12.26;60.76
10476;BME280;26166;48.264;11.436;2023-11-21T14:14:06;95848.19;;;12.26;60.73
10476;BME280;26166;48.264;11.436;2023-11-21T14:17:07;95853.28;;;12.27;60.72
10476;BME280;26166;48.264;11.436;2023-11-21T14:20:07;95849.84;;;12.27;60.89
10476;BME280;26166;48.264;11.436;2023-11-21T14:23:14;95854.31;;;12.26;60.88
10476;BME280;26166;48.264;11.436;2023-11-21T14:26:15;95858.56;;;12.27;61.48
10476;BME280;26166;48.264;11.436;2023-11-21T14:29:17;95862.56;;;12.23;61.69
10476;BME280;26166;48.264;11.436;2023-11-21T14:32:20;95859.13;;;12.23;61.96
10476;BME280;26166;48.264;11.436;2023-11-21T14:35:20;95856.03;;;12.19;62.22
10476;BME280;26166;48.264;11.436;2023-11-21T14:38:20;95859.28;;;12.21;61.70
10476;BME280;26166;48.264;11.436;2023-11-21T14:41:20;95862.94;;;12.20;62.29
10476;BME280;26166;48.264;11.436;2023-11-21T14:44:20;95867.59;;;12.18;61.96
10476;BME280;26166;48.264;11.436;2023-11-21T14:47:25;95863.75;;;12.21;62.22
10476;BME280;26166;48.264;11.436;2023-11-21T14:50:27;95872.47;;;12.21;62.83
10476;BME280;26166;48.264;11.436;2023-11-21T14:53:36;95869.56;;;12.16;62.88
10476;BME280;26166;48.264;11.436;2023-11-21T14:56:54;95871.19;;;12.17;63.41
10476;BME280;26166;48.264;11.436;2023-11-21T14:59:54;95884.34;;;12.17;63.06
10476;BME280;26166;48.264;11.436;2023-11-21T15:02:57;95877.31;;;12.18;63.13
10476;BME280;26166;48.264;11.436;2023-11-21T15:06:01;95884.34;;;12.17;63.23
10476;BME280;26166;48.264;11.436;2023-11-21T15:09:20;95889.00;;;12.15;62.93
10476;BME280;26166;48.264;11.436;2023-11-21T15:12:22;95882.72;;;12.16;62.98
10476;BME280;26166;48.264;11.436;2023-11-21T15:15:26;95885.56;;;12.15;62.75
10476;BME280;26166;48.264;11.436;2023-11-21T15:18:29;95885.00;;;12.19;62.81
10476;BME280;26166;48.264;11.436;2023-11-21T15:21:29;95887.53;;;12.12;63.07
10476;BME280;26166;48.264;11.436;2023-11-21T15:24:30;95896.28;;;12.13;63.00
10476;BME280;26166;48.264;11.436;2023-11-21T15:27:30;95898.53;;;12.16;62.88
10476;BME280;26166;48.264;11.436;2023-11-21T15:30:30;95902.38;;;12.14;62.83
10476;BME280;26166;48.264;11.436;2023-11-21T15:33:31;95910.25;;;12.14;63.05
10476;BME280;26166;48.264;11.436;2023-11-21T15:36:31;95908.81;;;12.11;62.99
10476;BME280;26166;48.264;11.436;2023-11-21T15:39:34;95906.53;;;12.08;63.30
10476;BME280;26166;48.264;11.436;2023-11-21T15:42:35;95907.53;;;12.07;63.23
10476;BME280;26166;48.264;11.436;2023-11-21T15:45:38;95910.16;;;12.07;63.30
10476;BME280;26166;48.264;11.436;2023-11-21T15:48:38;95915.63;;;12.05;63.42
10476;BME280;26166;48.264;11.436;2023-11-21T15:51:43;95915.44;;;12.07;63.16
10476;BME280;26166;48.264;11.436;2023-11-21T15:54:52;95921.72;;;12.06;63.47
10476;BME280;26166;48.264;11.436;2023-11-21T15:57:54;95917.44;;;12.05;63.23
10476;BME280;26166;48.264;11.436;2023-11-21T16:00:54;95927.22;;;12.11;63.18